Nissho Maru No7 — JH3472 — position and weather

sailwx.info

Track history (hours):
 
Tides and Currents Weather Stations Pressure Air Temp Water Temp Dewpoint Dewpoint Depression Visibility Wind Speed Wind Dir Waves Ship Positions

Nissho Maru No7

Last reported at 2014-Sep-02 02:31 UTC. Time now 2014-Sep-03 00:04 UTC.
Position N 34°57' E 139°21'.

Length 71 m.

MMSI: 431200355.

Date/timePositionNaut miles runAvg speedWind from/ knotsBaromVisibWave heightAir tempDewpointWater temp
2014-Sep-02 02:31N 34°57' E 139°21'1010.5
2014-Sep-02 01:33N 35°03' E 139°32'1111.1
2014-Sep-02 00:33N 35°08' E 139°43'1010.2
2014-Sep-01 23:33N 35°19' E 139°43'8 7.1
2014-Sep-01 22:28N 35°26' E 139°43'0 0.0
2014-Sep-01 21:31N 35°26' E 139°43'0 0.0
2014-Sep-01 20:31N 35°26' E 139°43'0 0.0
2014-Sep-01 19:25N 35°26' E 139°43'0 0.1
2014-Sep-01 18:31N 35°26' E 139°43'0 0.0
2014-Sep-01 17:31N 35°26' E 139°43'1 1.1
2014-Sep-01 16:34N 35°25' E 139°43'10 9.8
2014-Sep-01 15:33N 35°16' E 139°46'10 9.7
2014-Sep-01 14:33N 35°06' E 139°45'1010.0
2014-Sep-01 13:33N 34°56' E 139°45'11 9.0
2014-Sep-01 12:21N 34°54' E 139°57'1111.9
2014-Sep-01 11:24N 35°00' E 140°09'2311.9
2014-Sep-01 09:28N 35°15' E 140°30'1111.6
2014-Sep-01 08:30N 35°24' E 140°38'1211.7
2014-Sep-01 07:30N 35°33' E 140°47'  
2014-Aug-24 17:25N 36°11' E 140°58'1110.8
2014-Aug-24 16:22N 35°60' E 140°57'1311.1
2014-Aug-24 15:13N 35°47' E 140°56'910.9
2014-Aug-24 14:25N 35°39' E 140°52'1111.8
2014-Aug-24 13:32N 35°31' E 140°44'3911.7
2014-Aug-24 10:14N 35°02' E 140°12'912.2
2014-Aug-24 09:30N 34°57' E 140°03'1311.9
2014-Aug-24 08:23N 34°52' E 139°48'1012.5
2014-Aug-24 07:33N 34°51' E 139°36'211 7.5
2014-Aug-23 03:33N 34°35' E 135°20'6 5.9
2014-Aug-23 02:33N 34°35' E 135°27'  
Track history (hours):
 
Tides and Currents Weather Stations Pressure Air Temp Water Temp Dewpoint Dewpoint Depression Visibility Wind Speed Wind Dir Waves Ship Positions

Nissho Maru No7

Last reported at 2014-Sep-02 02:31 UTC. Time now 2014-Sep-03 00:04 UTC.
Position N 34°57' E 139°21'.

Length 71 m.

MMSI: 431200355.

Date/timePositionNaut miles runAvg speedWind from/ knotsBaromVisibWave heightAir tempDewpointWater temp
2014-Sep-02 02:31N 34°57' E 139°21'1010.5
2014-Sep-02 01:33N 35°03' E 139°32'1111.1
2014-Sep-02 00:33N 35°08' E 139°43'1010.2
2014-Sep-01 23:33N 35°19' E 139°43'8 7.1
2014-Sep-01 22:28N 35°26' E 139°43'0 0.0
2014-Sep-01 21:31N 35°26' E 139°43'0 0.0
2014-Sep-01 20:31N 35°26' E 139°43'0 0.0
2014-Sep-01 19:25N 35°26' E 139°43'0 0.1
2014-Sep-01 18:31N 35°26' E 139°43'0 0.0
2014-Sep-01 17:31N 35°26' E 139°43'1 1.1
2014-Sep-01 16:34N 35°25' E 139°43'10 9.8
2014-Sep-01 15:33N 35°16' E 139°46'10 9.7
2014-Sep-01 14:33N 35°06' E 139°45'1010.0
2014-Sep-01 13:33N 34°56' E 139°45'11 9.0
2014-Sep-01 12:21N 34°54' E 139°57'1111.9
2014-Sep-01 11:24N 35°00' E 140°09'2311.9
2014-Sep-01 09:28N 35°15' E 140°30'1111.6
2014-Sep-01 08:30N 35°24' E 140°38'1211.7
2014-Sep-01 07:30N 35°33' E 140°47'  
2014-Aug-24 17:25N 36°11' E 140°58'1110.8
2014-Aug-24 16:22N 35°60' E 140°57'1311.1
2014-Aug-24 15:13N 35°47' E 140°56'910.9
2014-Aug-24 14:25N 35°39' E 140°52'1111.8
2014-Aug-24 13:32N 35°31' E 140°44'3911.7
2014-Aug-24 10:14N 35°02' E 140°12'912.2
2014-Aug-24 09:30N 34°57' E 140°03'1311.9
2014-Aug-24 08:23N 34°52' E 139°48'1012.5
2014-Aug-24 07:33N 34°51' E 139°36'211 7.5
2014-Aug-23 03:33N 34°35' E 135°20'6 5.9
2014-Aug-23 02:33N 34°35' E 135°27'  

Dump ship's entire track history